sensor_id;sensor_type;location;lat;lon;timestamp;temperature;humidity
5258;DHT22;2651;51.594;9.928;2023-11-19T00:00:59;6.60;99.90
5258;DHT22;2651;51.594;9.928;2023-11-19T00:02:01;6.70;99.90
5258;DHT22;2651;51.594;9.928;2023-11-19T00:03:03;6.60;99.90
5258;DHT22;2651;51.594;9.928;2023-11-19T00:04:06;6.70;99.90
5258;DHT22;2651;51.594;9.928;2023-11-19T00:05:09;6.70;99.90
5258;DHT22;2651;51.594;9.928;2023-11-19T00:06:13;6.70;99.90
5258;DHT22;2651;51.594;9.928;2023-11-19T00:07:14;6.70;99.90
5258;DHT22;2651;51.594;9.928;2023-11-19T00:08:16;6.70;99.90
5258;DHT22;2651;51.594;9.928;2023-11-19T00:09:18;6.70;99.90
5258;DHT22;2651;51.594;9.928;2023-11-19T00:10:19;6.70;99.90
5258;DHT22;2651;51.594;9.928;2023-11-19T00:11:22;6.70;99.90
5258;DHT22;2651;51.594;9.928;2023-11-19T00:12:24;6.70;99.90
5258;DHT22;2651;51.594;9.928;2023-11-19T00:13:26;6.70;99.90
5258;DHT22;2651;51.594;9.928;2023-11-19T00:14:27;6.70;99.90
5258;DHT22;2651;51.594;9.928;2023-11-19T00:15:30;6.70;99.90
5258;DHT22;2651;51.594;9.928;2023-11-19T00:16:32;6.70;99.90
5258;DHT22;2651;51.594;9.928;2023-11-19T00:17:34;6.70;99.90
5258;DHT22;2651;51.594;9.928;2023-11-19T00:18:36;6.80;99.90
5258;DHT22;2651;51.594;9.928;2023-11-19T00:19:37;6.70;99.90
5258;DHT22;2651;51.594;9.928;2023-11-19T00:20:39;6.80;99.90
5258;DHT22;2651;51.594;9.928;2023-11-19T00:21:41;6.80;99.90
5258;DHT22;2651;51.594;9.928;2023-11-19T00:22:43;6.80;99.90
5258;DHT22;2651;51.594;9.928;2023-11-19T00:23:48;6.90;99.90
5258;DHT22;2651;51.594;9.928;2023-11-19T00:24:49;6.80;99.90
5258;DHT22;2651;51.594;9.928;2023-11-19T00:25:51;6.80;99.90
5258;DHT22;2651;51.594;9.928;2023-11-19T00:26:53;6.90;99.90
5258;DHT22;2651;51.594;9.928;2023-11-19T00:27:54;6.90;99.90
5258;DHT22;2651;51.594;9.928;2023-11-19T00:28:58;6.90;99.90
5258;DHT22;2651;51.594;9.928;2023-11-19T00:30:00;6.90;99.90
5258;DHT22;2651;51.594;9.928;2023-11-19T00:31:02;6.90;99.90
5258;DHT22;2651;51.594;9.928;2023-11-19T00:32:05;6.90;99.90
5258;DHT22;2651;51.594;9.928;2023-11-19T00:33:07;6.90;99.90
5258;DHT22;2651;51.594;9.928;2023-11-19T00:34:09;6.90;99.90
5258;DHT22;2651;51.594;9.928;2023-11-19T00:35:11;6.90;99.90
5258;DHT22;2651;51.594;9.928;2023-11-19T00:36:15;6.90;99.90
5258;DHT22;2651;51.594;9.928;2023-11-19T00:37:17;6.90;99.90
5258;DHT22;2651;51.594;9.928;2023-11-19T00:38:19;6.90;99.90
5258;DHT22;2651;51.594;9.928;2023-11-19T00:39:20;6.90;99.90
5258;DHT22;2651;51.594;9.928;2023-11-19T00:40:22;6.90;99.90
5258;DHT22;2651;51.594;9.928;2023-11-19T00:41:25;6.90;99.90
5258;DHT22;2651;51.594;9.928;2023-11-19T00:42:27;7.00;99.90
5258;DHT22;2651;51.594;9.928;2023-11-19T00:43:28;7.00;99.90
5258;DHT22;2651;51.594;9.928;2023-11-19T00:44:30;7.00;99.90
5258;DHT22;2651;51.594;9.928;2023-11-19T00:45:32;7.00;99.90
5258;DHT22;2651;51.594;9.928;2023-11-19T00:46:34;7.00;99.90
5258;DHT22;2651;51.594;9.928;2023-11-19T00:47:35;7.00;99.90
5258;DHT22;2651;51.594;9.928;2023-11-19T00:48:38;7.00;99.90
5258;DHT22;2651;51.594;9.928;2023-11-19T00:49:39;7.00;99.90
5258;DHT22;2651;51.594;9.928;2023-11-19T00:50:41;7.00;99.90
5258;DHT22;2651;51.594;9.928;2023-11-19T00:51:45;7.00;99.90
5258;DHT22;2651;51.594;9.928;2023-11-19T00:52:47;7.00;99.90
5258;DHT22;2651;51.594;9.928;2023-11-19T00:53:49;7.00;99.90
5258;DHT22;2651;51.594;9.928;2023-11-19T00:54:50;7.00;99.90
5258;DHT22;2651;51.594;9.928;2023-11-19T00:55:52;7.10;99.90
5258;DHT22;2651;51.594;9.928;2023-11-19T00:56:54;7.10;99.90
5258;DHT22;2651;51.594;9.928;2023-11-19T00:57:56;7.10;99.90
5258;DHT22;2651;51.594;9.928;2023-11-19T00:58:58;7.10;99.90
5258;DHT22;2651;51.594;9.928;2023-11-19T01:00:02;7.10;99.90
5258;DHT22;2651;51.594;9.928;2023-11-19T01:01:11;7.00;99.90
5258;DHT22;2651;51.594;9.928;2023-11-19T01:02:13;7.10;99.90
5258;DHT22;2651;51.594;9.928;2023-11-19T01:03:15;7.10;99.90
5258;DHT22;2651;51.594;9.928;2023-11-19T01:04:17;7.10;99.90
5258;DHT22;2651;51.594;9.928;2023-11-19T01:05:20;7.10;99.90
5258;DHT22;2651;51.594;9.928;2023-11-19T01:06:29;7.10;99.90
5258;DHT22;2651;51.594;9.928;2023-11-19T01:07:31;7.10;99.90
5258;DHT22;2651;51.594;9.928;2023-11-19T01:08:33;7.10;99.90
5258;DHT22;2651;51.594;9.928;2023-11-19T01:09:37;7.10;99.90
5258;DHT22;2651;51.594;9.928;2023-11-19T01:10:38;7.20;99.90
5258;DHT22;2651;51.594;9.928;2023-11-19T01:11:40;7.20;99.90
5258;DHT22;2651;51.594;9.928;2023-11-19T01:12:42;7.20;99.90
5258;DHT22;2651;51.594;9.928;2023-11-19T01:13:44;7.20;99.90
5258;DHT22;2651;51.594;9.928;2023-11-19T01:14:46;7.20;99.90
5258;DHT22;2651;51.594;9.928;2023-11-19T01:15:48;7.20;99.90
5258;DHT22;2651;51.594;9.928;2023-11-19T01:16:49;7.20;99.90
5258;DHT22;2651;51.594;9.928;2023-11-19T01:17:51;7.20;99.90
5258;DHT22;2651;51.594;9.928;2023-11-19T01:18:54;7.20;99.90
5258;DHT22;2651;51.594;9.928;2023-11-19T01:20:12;7.30;99.90
5258;DHT22;2651;51.594;9.928;2023-11-19T01:21:15;7.20;99.90
5258;DHT22;2651;51.594;9.928;2023-11-19T01:22:17;7.30;99.90
5258;DHT22;2651;51.594;9.928;2023-11-19T01:23:20;7.20;99.90
5258;DHT22;2651;51.594;9.928;2023-11-19T01:24:22;7.20;99.90
5258;DHT22;2651;51.594;9.928;2023-11-19T01:25:24;7.20;99.90
5258;DHT22;2651;51.594;9.928;2023-11-19T01:26:25;7.30;99.90
5258;DHT22;2651;51.594;9.928;2023-11-19T01:27:28;7.30;99.90
5258;DHT22;2651;51.594;9.928;2023-11-19T01:28:30;7.30;99.90
5258;DHT22;2651;51.594;9.928;2023-11-19T01:29:32;7.30;99.90
5258;DHT22;2651;51.594;9.928;2023-11-19T01:30:34;7.30;99.90
5258;DHT22;2651;51.594;9.928;2023-11-19T01:31:36;7.30;99.90
5258;DHT22;2651;51.594;9.928;2023-11-19T01:32:39;7.30;99.90
5258;DHT22;2651;51.594;9.928;2023-11-19T01:33:42;7.30;99.90
5258;DHT22;2651;51.594;9.928;2023-11-19T01:34:44;7.30;99.90
5258;DHT22;2651;51.594;9.928;2023-11-19T01:35:45;7.30;99.90
5258;DHT22;2651;51.594;9.928;2023-11-19T01:36:47;7.30;99.90
5258;DHT22;2651;51.594;9.928;2023-11-19T01:37:50;7.30;99.90
5258;DHT22;2651;51.594;9.928;2023-11-19T01:38:52;7.30;99.90
5258;DHT22;2651;51.594;9.928;2023-11-19T01:39:54;7.30;99.90
5258;DHT22;2651;51.594;9.928;2023-11-19T01:41:01;7.30;99.90
5258;DHT22;2651;51.594;9.928;2023-11-19T01:42:05;7.40;99.90
5258;DHT22;2651;51.594;9.928;2023-11-19T01:43:06;7.40;99.90
5258;DHT22;2651;51.594;9.928;2023-11-19T01:44:08;7.40;99.90
5258;DHT22;2651;51.594;9.928;2023-11-19T01:45:18;7.40;99.90
5258;DHT22;2651;51.594;9.928;2023-11-19T01:46:23;7.40;99.90
5258;DHT22;2651;51.594;9.928;2023-11-19T01:47:28;7.40;99.90
5258;DHT22;2651;51.594;9.928;2023-11-19T01:48:32;7.40;99.90
5258;DHT22;2651;51.594;9.928;2023-11-19T01:49:35;7.40;99.90
5258;DHT22;2651;51.594;9.928;2023-11-19T01:50:37;7.40;99.90
5258;DHT22;2651;51.594;9.928;2023-11-19T01:51:39;7.40;99.90
5258;DHT22;2651;51.594;9.928;2023-11-19T01:52:41;7.40;99.90
5258;DHT22;2651;51.594;9.928;2023-11-19T01:53:43;7.50;99.90
5258;DHT22;2651;51.594;9.928;2023-11-19T01:54:46;7.50;99.90
5258;DHT22;2651;51.594;9.928;2023-11-19T01:55:49;7.50;99.90
5258;DHT22;2651;51.594;9.928;2023-11-19T01:56:52;7.50;99.90
5258;DHT22;2651;51.594;9.928;2023-11-19T01:57:59;7.50;99.90
5258;DHT22;2651;51.594;9.928;2023-11-19T01:59:03;7.50;99.90
5258;DHT22;2651;51.594;9.928;2023-11-19T02:00:06;7.60;99.90
5258;DHT22;2651;51.594;9.928;2023-11-19T02:01:08;7.60;99.90
5258;DHT22;2651;51.594;9.928;2023-11-19T02:02:10;7.60;99.90
5258;DHT22;2651;51.594;9.928;2023-11-19T02:03:15;7.60;99.90
5258;DHT22;2651;51.594;9.928;2023-11-19T02:04:17;7.60;99.90
5258;DHT22;2651;51.594;9.928;2023-11-19T02:05:19;7.60;99.90
5258;DHT22;2651;51.594;9.928;2023-11-19T02:06:21;7.60;99.90
5258;DHT22;2651;51.594;9.928;2023-11-19T02:07:24;7.60;99.90
5258;DHT22;2651;51.594;9.928;2023-11-19T02:08:27;7.60;99.90
5258;DHT22;2651;51.594;9.928;2023-11-19T02:09:28;7.60;99.90
5258;DHT22;2651;51.594;9.928;2023-11-19T02:10:31;7.60;99.90
5258;DHT22;2651;51.594;9.928;2023-11-19T02:11:34;7.60;99.90
5258;DHT22;2651;51.594;9.928;2023-11-19T02:12:36;7.60;99.90
5258;DHT22;2651;51.594;9.928;2023-11-19T02:13:38;7.70;99.90
5258;DHT22;2651;51.594;9.928;2023-11-19T02:14:41;7.70;99.90
5258;DHT22;2651;51.594;9.928;2023-11-19T02:15:43;7.70;99.90
5258;DHT22;2651;51.594;9.928;2023-11-19T02:16:45;7.70;99.90
5258;DHT22;2651;51.594;9.928;2023-11-19T02:17:47;7.70;99.90
5258;DHT22;2651;51.594;9.928;2023-11-19T02:18:48;7.70;99.90
5258;DHT22;2651;51.594;9.928;2023-11-19T02:19:50;7.70;99.90
5258;DHT22;2651;51.594;9.928;2023-11-19T02:20:52;7.70;99.90
5258;DHT22;2651;51.594;9.928;2023-11-19T02:21:54;7.70;99.90
5258;DHT22;2651;51.594;9.928;2023-11-19T02:22:57;7.80;99.90
5258;DHT22;2651;51.594;9.928;2023-11-19T02:23:59;7.80;99.90
5258;DHT22;2651;51.594;9.928;2023-11-19T02:25:07;7.80;99.90
5258;DHT22;2651;51.594;9.928;2023-11-19T02:28:02;7.80;99.90
5258;DHT22;2651;51.594;9.928;2023-11-19T02:29:04;7.90;99.90
5258;DHT22;2651;51.594;9.928;2023-11-19T02:30:10;7.90;99.90
5258;DHT22;2651;51.594;9.928;2023-11-19T02:31:12;7.90;99.90
5258;DHT22;2651;51.594;9.928;2023-11-19T02:32:15;7.90;99.90
5258;DHT22;2651;51.594;9.928;2023-11-19T02:33:17;7.90;99.90
5258;DHT22;2651;51.594;9.928;2023-11-19T02:34:18;7.90;99.90
5258;DHT22;2651;51.594;9.928;2023-11-19T02:35:20;7.90;99.90
5258;DHT22;2651;51.594;9.928;2023-11-19T02:36:23;7.90;99.90
5258;DHT22;2651;51.594;9.928;2023-11-19T02:37:24;7.90;99.90
5258;DHT22;2651;51.594;9.928;2023-11-19T02:38:26;7.90;99.90
5258;DHT22;2651;51.594;9.928;2023-11-19T02:39:28;8.00;99.90
5258;DHT22;2651;51.594;9.928;2023-11-19T02:40:30;8.00;99.90
5258;DHT22;2651;51.594;9.928;2023-11-19T02:41:32;7.90;99.90
5258;DHT22;2651;51.594;9.928;2023-11-19T02:42:33;8.00;99.90
5258;DHT22;2651;51.594;9.928;2023-11-19T02:43:37;8.00;99.90
5258;DHT22;2651;51.594;9.928;2023-11-19T02:44:39;8.00;99.90
5258;DHT22;2651;51.594;9.928;2023-11-19T02:45:41;8.00;99.90
5258;DHT22;2651;51.594;9.928;2023-11-19T02:46:43;8.10;99.90
5258;DHT22;2651;51.594;9.928;2023-11-19T02:47:45;8.10;99.90
5258;DHT22;2651;51.594;9.928;2023-11-19T02:48:47;8.10;99.90
5258;DHT22;2651;51.594;9.928;2023-11-19T02:49:49;8.10;99.90
5258;DHT22;2651;51.594;9.928;2023-11-19T02:50:51;8.10;99.90
5258;DHT22;2651;51.594;9.928;2023-11-19T02:51:54;8.10;99.90
5258;DHT22;2651;51.594;9.928;2023-11-19T02:52:56;8.10;99.90
5258;DHT22;2651;51.594;9.928;2023-11-19T02:53:58;8.20;99.90
5258;DHT22;2651;51.594;9.928;2023-11-19T02:55:00;8.20;99.90
5258;DHT22;2651;51.594;9.928;2023-11-19T02:56:03;8.20;99.90
5258;DHT22;2651;51.594;9.928;2023-11-19T02:57:13;8.20;99.90
5258;DHT22;2651;51.594;9.928;2023-11-19T02:58:23;8.20;99.90
5258;DHT22;2651;51.594;9.928;2023-11-19T02:59:26;8.20;99.90
5258;DHT22;2651;51.594;9.928;2023-11-19T03:00:29;8.30;99.90
5258;DHT22;2651;51.594;9.928;2023-11-19T03:01:37;8.30;99.90
5258;DHT22;2651;51.594;9.928;2023-11-19T03:02:45;8.30;99.90
5258;DHT22;2651;51.594;9.928;2023-11-19T03:04:00;8.30;99.90
5258;DHT22;2651;51.594;9.928;2023-11-19T03:05:04;8.40;99.90
5258;DHT22;2651;51.594;9.928;2023-11-19T03:06:06;8.40;99.90
5258;DHT22;2651;51.594;9.928;2023-11-19T03:07:08;8.40;99.90
5258;DHT22;2651;51.594;9.928;2023-11-19T03:08:10;8.40;99.90
5258;DHT22;2651;51.594;9.928;2023-11-19T03:09:24;8.40;99.90
5258;DHT22;2651;51.594;9.928;2023-11-19T03:10:26;8.40;99.90
5258;DHT22;2651;51.594;9.928;2023-11-19T03:11:27;8.40;99.90
5258;DHT22;2651;51.594;9.928;2023-11-19T03:12:29;8.50;99.90
5258;DHT22;2651;51.594;9.928;2023-11-19T03:13:31;8.50;99.90
5258;DHT22;2651;51.594;9.928;2023-11-19T03:14:33;8.50;99.90
5258;DHT22;2651;51.594;9.928;2023-11-19T03:15:36;8.50;99.90
5258;DHT22;2651;51.594;9.928;2023-11-19T03:16:37;8.50;99.90
5258;DHT22;2651;51.594;9.928;2023-11-19T03:17:40;8.60;99.90
5258;DHT22;2651;51.594;9.928;2023-11-19T03:18:42;8.60;99.90
5258;DHT22;2651;51.594;9.928;2023-11-19T03:19:43;8.60;99.90
5258;DHT22;2651;51.594;9.928;2023-11-19T03:20:48;8.60;99.90
5258;DHT22;2651;51.594;9.928;2023-11-19T03:21:51;8.60;99.90
5258;DHT22;2651;51.594;9.928;2023-11-19T03:22:53;8.60;99.90
5258;DHT22;2651;51.594;9.928;2023-11-19T03:23:54;8.60;99.90
5258;DHT22;2651;51.594;9.928;2023-11-19T03:24:56;8.70;99.90
5258;DHT22;2651;51.594;9.928;2023-11-19T03:25:58;8.60;99.90
5258;DHT22;2651;51.594;9.928;2023-11-19T03:27:00;8.60;99.90
5258;DHT22;2651;51.594;9.928;2023-11-19T03:28:03;8.70;99.90
5258;DHT22;2651;51.594;9.928;2023-11-19T03:29:05;8.70;99.90
5258;DHT22;2651;51.594;9.928;2023-11-19T03:30:08;8.70;99.90
5258;DHT22;2651;51.594;9.928;2023-11-19T03:31:11;8.70;99.90
5258;DHT22;2651;51.594;9.928;2023-11-19T03:32:12;8.70;99.90
5258;DHT22;2651;51.594;9.928;2023-11-19T03:33:14;8.70;99.90
5258;DHT22;2651;51.594;9.928;2023-11-19T03:34:16;8.70;99.90
5258;DHT22;2651;51.594;9.928;2023-11-19T03:35:18;8.70;99.90
5258;DHT22;2651;51.594;9.928;2023-11-19T03:36:19;8.70;99.90
5258;DHT22;2651;51.594;9.928;2023-11-19T03:37:21;8.70;99.90
5258;DHT22;2651;51.594;9.928;2023-11-19T03:38:24;8.70;99.90
5258;DHT22;2651;51.594;9.928;2023-11-19T03:39:26;8.70;99.90
5258;DHT22;2651;51.594;9.928;2023-11-19T03:40:28;8.80;99.90
5258;DHT22;2651;51.594;9.928;2023-11-19T03:41:31;8.80;99.90
5258;DHT22;2651;51.594;9.928;2023-11-19T03:42:42;8.80;99.90
5258;DHT22;2651;51.594;9.928;2023-11-19T03:43:45;8.80;99.90
5258;DHT22;2651;51.594;9.928;2023-11-19T03:44:47;8.80;99.90
5258;DHT22;2651;51.594;9.928;2023-11-19T03:45:50;8.80;99.90
5258;DHT22;2651;51.594;9.928;2023-11-19T03:46:52;8.90;99.90
5258;DHT22;2651;51.594;9.928;2023-11-19T03:47:54;8.90;99.90
5258;DHT22;2651;51.594;9.928;2023-11-19T03:48:56;8.90;99.90
5258;DHT22;2651;51.594;9.928;2023-11-19T03:49:58;8.90;99.90
5258;DHT22;2651;51.594;9.928;2023-11-19T03:50:59;8.80;99.90
5258;DHT22;2651;51.594;9.928;2023-11-19T03:52:01;8.80;99.90
5258;DHT22;2651;51.594;9.928;2023-11-19T03:53:03;8.90;99.90
5258;DHT22;2651;51.594;9.928;2023-11-19T03:54:06;8.90;99.90
5258;DHT22;2651;51.594;9.928;2023-11-19T03:55:08;8.90;99.90
5258;DHT22;2651;51.594;9.928;2023-11-19T03:56:10;8.90;99.90
5258;DHT22;2651;51.594;9.928;2023-11-19T03:57:13;8.90;99.90
5258;DHT22;2651;51.594;9.928;2023-11-19T03:58:15;8.90;99.90
5258;DHT22;2651;51.594;9.928;2023-11-19T03:59:17;8.90;99.90
5258;DHT22;2651;51.594;9.928;2023-11-19T04:00:20;8.90;99.90
5258;DHT22;2651;51.594;9.928;2023-11-19T04:01:22;8.90;99.90
5258;DHT22;2651;51.594;9.928;2023-11-19T04:02:24;8.90;99.90
5258;DHT22;2651;51.594;9.928;2023-11-19T04:03:29;9.00;99.90
5258;DHT22;2651;51.594;9.928;2023-11-19T04:04:31;9.00;99.90
5258;DHT22;2651;51.594;9.928;2023-11-19T04:05:32;9.00;99.90
5258;DHT22;2651;51.594;9.928;2023-11-19T04:06:34;8.90;99.90
5258;DHT22;2651;51.594;9.928;2023-11-19T04:07:36;8.90;99.90
5258;DHT22;2651;51.594;9.928;2023-11-19T04:08:38;8.90;99.90
5258;DHT22;2651;51.594;9.928;2023-11-19T04:09:39;8.90;99.90
5258;DHT22;2651;51.594;9.928;2023-11-19T04:10:41;8.90;99.90
5258;DHT22;2651;51.594;9.928;2023-11-19T04:11:43;9.00;99.90
5258;DHT22;2651;51.594;9.928;2023-11-19T04:12:44;8.90;99.90
5258;DHT22;2651;51.594;9.928;2023-11-19T04:13:46;9.00;99.90
5258;DHT22;2651;51.594;9.928;2023-11-19T04:14:48;8.90;99.90
5258;DHT22;2651;51.594;9.928;2023-11-19T04:16:02;9.00;99.90
5258;DHT22;2651;51.594;9.928;2023-11-19T04:17:04;9.00;99.90
5258;DHT22;2651;51.594;9.928;2023-11-19T04:18:06;8.90;99.90
5258;DHT22;2651;51.594;9.928;2023-11-19T04:19:08;8.90;99.90
5258;DHT22;2651;51.594;9.928;2023-11-19T04:20:11;8.90;99.90
5258;DHT22;2651;51.594;9.928;2023-11-19T04:21:15;8.90;99.90
5258;DHT22;2651;51.594;9.928;2023-11-19T04:22:17;8.90;99.90
5258;DHT22;2651;51.594;9.928;2023-11-19T04:23:19;9.00;99.90
5258;DHT22;2651;51.594;9.928;2023-11-19T04:24:20;9.00;99.90
5258;DHT22;2651;51.594;9.928;2023-11-19T04:25:22;9.00;99.90
5258;DHT22;2651;51.594;9.928;2023-11-19T04:26:24;9.00;99.90
5258;DHT22;2651;51.594;9.928;2023-11-19T04:27:26;9.00;99.90
5258;DHT22;2651;51.594;9.928;2023-11-19T04:28:27;9.00;99.90
5258;DHT22;2651;51.594;9.928;2023-11-19T04:29:30;9.00;99.90
5258;DHT22;2651;51.594;9.928;2023-11-19T04:30:32;9.00;99.90
5258;DHT22;2651;51.594;9.928;2023-11-19T04:31:34;9.10;99.90
5258;DHT22;2651;51.594;9.928;2023-11-19T04:32:36;9.10;99.90
5258;DHT22;2651;51.594;9.928;2023-11-19T04:33:38;9.10;99.90
5258;DHT22;2651;51.594;9.928;2023-11-19T04:34:40;9.10;99.90
5258;DHT22;2651;51.594;9.928;2023-11-19T04:35:41;9.10;99.90
5258;DHT22;2651;51.594;9.928;2023-11-19T04:36:43;9.10;99.90
5258;DHT22;2651;51.594;9.928;2023-11-19T04:37:45;9.10;99.90
5258;DHT22;2651;51.594;9.928;2023-11-19T04:38:48;9.10;99.90
5258;DHT22;2651;51.594;9.928;2023-11-19T04:39:50;9.10;99.90
5258;DHT22;2651;51.594;9.928;2023-11-19T04:40:53;9.10;99.90
5258;DHT22;2651;51.594;9.928;2023-11-19T04:41:54;9.20;99.90
5258;DHT22;2651;51.594;9.928;2023-11-19T04:42:56;9.20;99.90
5258;DHT22;2651;51.594;9.928;2023-11-19T04:43:58;9.10;99.90
5258;DHT22;2651;51.594;9.928;2023-11-19T04:44:59;9.10;99.90
5258;DHT22;2651;51.594;9.928;2023-11-19T04:46:04;9.10;99.90
5258;DHT22;2651;51.594;9.928;2023-11-19T04:47:06;9.10;99.90
5258;DHT22;2651;51.594;9.928;2023-11-19T04:48:07;9.10;99.90
5258;DHT22;2651;51.594;9.928;2023-11-19T04:49:10;9.20;99.90
5258;DHT22;2651;51.594;9.928;2023-11-19T04:50:12;9.20;99.90
5258;DHT22;2651;51.594;9.928;2023-11-19T04:51:14;9.20;99.90
5258;DHT22;2651;51.594;9.928;2023-11-19T04:52:15;9.20;99.90
5258;DHT22;2651;51.594;9.928;2023-11-19T04:53:17;9.20;99.90
5258;DHT22;2651;51.594;9.928;2023-11-19T04:54:19;9.10;99.90
5258;DHT22;2651;51.594;9.928;2023-11-19T04:55:21;9.20;99.90
5258;DHT22;2651;51.594;9.928;2023-11-19T04:56:22;9.20;99.90
5258;DHT22;2651;51.594;9.928;2023-11-19T04:57:24;9.20;99.90
5258;DHT22;2651;51.594;9.928;2023-11-19T04:58:29;9.10;99.90
5258;DHT22;2651;51.594;9.928;2023-11-19T04:59:31;9.10;99.90
5258;DHT22;2651;51.594;9.928;2023-11-19T05:00:32;9.10;99.90
5258;DHT22;2651;51.594;9.928;2023-11-19T05:01:35;9.10;99.90
5258;DHT22;2651;51.594;9.928;2023-11-19T05:02:37;9.10;99.90
5258;DHT22;2651;51.594;9.928;2023-11-19T05:03:39;9.10;99.90
5258;DHT22;2651;51.594;9.928;2023-11-19T05:04:43;9.20;99.90
5258;DHT22;2651;51.594;9.928;2023-11-19T05:05:49;9.20;99.90
5258;DHT22;2651;51.594;9.928;2023-11-19T05:06:50;9.20;99.90
5258;DHT22;2651;51.594;9.928;2023-11-19T05:07:52;9.20;99.90
5258;DHT22;2651;51.594;9.928;2023-11-19T05:08:54;9.20;99.90
5258;DHT22;2651;51.594;9.928;2023-11-19T05:09:56;9.20;99.90
5258;DHT22;2651;51.594;9.928;2023-11-19T05:10:58;9.20;99.90
5258;DHT22;2651;51.594;9.928;2023-11-19T05:12:00;9.20;99.90
5258;DHT22;2651;51.594;9.928;2023-11-19T05:13:03;9.30;99.90
5258;DHT22;2651;51.594;9.928;2023-11-19T05:14:05;9.30;99.90
5258;DHT22;2651;51.594;9.928;2023-11-19T05:15:07;9.30;99.90
5258;DHT22;2651;51.594;9.928;2023-11-19T05:16:09;9.30;99.90
5258;DHT22;2651;51.594;9.928;2023-11-19T05:17:11;9.30;99.90
5258;DHT22;2651;51.594;9.928;2023-11-19T05:18:13;9.30;99.90
5258;DHT22;2651;51.594;9.928;2023-11-19T05:19:15;9.30;99.90
5258;DHT22;2651;51.594;9.928;2023-11-19T05:20:16;9.40;99.90
5258;DHT22;2651;51.594;9.928;2023-11-19T05:21:18;9.40;99.90
5258;DHT22;2651;51.594;9.928;2023-11-19T05:22:20;9.40;99.90
5258;DHT22;2651;51.594;9.928;2023-11-19T05:23:22;9.40;99.90
5258;DHT22;2651;51.594;9.928;2023-11-19T05:24:24;9.40;99.90
5258;DHT22;2651;51.594;9.928;2023-11-19T05:25:26;9.40;99.90
5258;DHT22;2651;51.594;9.928;2023-11-19T05:26:28;9.40;99.90
5258;DHT22;2651;51.594;9.928;2023-11-19T05:27:30;9.40;99.90
5258;DHT22;2651;51.594;9.928;2023-11-19T05:28:31;9.40;99.90
5258;DHT22;2651;51.594;9.928;2023-11-19T05:29:33;9.40;99.90
5258;DHT22;2651;51.594;9.928;2023-11-19T05:30:35;9.40;99.90
5258;DHT22;2651;51.594;9.928;2023-11-19T05:31:37;9.40;99.90
5258;DHT22;2651;51.594;9.928;2023-11-19T05:32:40;9.40;99.90
5258;DHT22;2651;51.594;9.928;2023-11-19T05:33:41;9.40;99.90
5258;DHT22;2651;51.594;9.928;2023-11-19T05:34:43;9.40;99.90
5258;DHT22;2651;51.594;9.928;2023-11-19T05:35:48;9.40;99.90
5258;DHT22;2651;51.594;9.928;2023-11-19T05:36:50;9.40;99.90
5258;DHT22;2651;51.594;9.928;2023-11-19T05:37:52;9.40;99.90
5258;DHT22;2651;51.594;9.928;2023-11-19T05:38:53;9.40;99.90
5258;DHT22;2651;51.594;9.928;2023-11-19T05:39:55;9.40;99.90
5258;DHT22;2651;51.594;9.928;2023-11-19T05:40:57;9.40;99.90
5258;DHT22;2651;51.594;9.928;2023-11-19T05:41:58;9.40;99.90
5258;DHT22;2651;51.594;9.928;2023-11-19T05:43:01;9.40;99.90
5258;DHT22;2651;51.594;9.928;2023-11-19T05:44:02;9.40;99.90
5258;DHT22;2651;51.594;9.928;2023-11-19T05:45:04;9.40;99.90
5258;DHT22;2651;51.594;9.928;2023-11-19T05:46:06;9.40;99.90
5258;DHT22;2651;51.594;9.928;2023-11-19T05:47:20;9.40;99.90
5258;DHT22;2651;51.594;9.928;2023-11-19T05:48:23;9.40;99.90
5258;DHT22;2651;51.594;9.928;2023-11-19T05:49:25;9.50;99.90
5258;DHT22;2651;51.594;9.928;2023-11-19T05:50:27;9.50;99.90
5258;DHT22;2651;51.594;9.928;2023-11-19T05:51:28;9.50;99.90
5258;DHT22;2651;51.594;9.928;2023-11-19T05:52:30;9.50;99.90
5258;DHT22;2651;51.594;9.928;2023-11-19T05:53:35;9.50;99.90
5258;DHT22;2651;51.594;9.928;2023-11-19T05:54:36;9.50;99.90
5258;DHT22;2651;51.594;9.928;2023-11-19T05:55:39;9.50;99.90
5258;DHT22;2651;51.594;9.928;2023-11-19T05:56:57;9.50;99.90
5258;DHT22;2651;51.594;9.928;2023-11-19T05:57:59;9.50;99.90
5258;DHT22;2651;51.594;9.928;2023-11-19T05:59:01;9.50;99.90
5258;DHT22;2651;51.594;9.928;2023-11-19T06:00:09;9.50;99.90
5258;DHT22;2651;51.594;9.928;2023-11-19T06:01:12;9.50;99.90
5258;DHT22;2651;51.594;9.928;2023-11-19T06:02:14;9.50;99.90
5258;DHT22;2651;51.594;9.928;2023-11-19T06:03:16;9.40;99.90
5258;DHT22;2651;51.594;9.928;2023-11-19T06:04:18;9.40;99.90
5258;DHT22;2651;51.594;9.928;2023-11-19T06:05:20;9.50;99.90
5258;DHT22;2651;51.594;9.928;2023-11-19T06:06:21;9.40;99.90
5258;DHT22;2651;51.594;9.928;2023-11-19T06:07:23;9.40;99.90
5258;DHT22;2651;51.594;9.928;2023-11-19T06:08:25;9.40;99.90
5258;DHT22;2651;51.594;9.928;2023-11-19T06:09:28;9.40;99.90
5258;DHT22;2651;51.594;9.928;2023-11-19T06:10:30;9.40;99.90
5258;DHT22;2651;51.594;9.928;2023-11-19T06:11:35;9.40;99.90
5258;DHT22;2651;51.594;9.928;2023-11-19T06:12:37;9.40;99.90
5258;DHT22;2651;51.594;9.928;2023-11-19T06:13:40;9.40;99.90
5258;DHT22;2651;51.594;9.928;2023-11-19T06:14:42;9.40;99.90
5258;DHT22;2651;51.594;9.928;2023-11-19T06:15:43;9.40;99.90
5258;DHT22;2651;51.594;9.928;2023-11-19T06:16:45;9.40;99.90
5258;DHT22;2651;51.594;9.928;2023-11-19T06:17:47;9.40;99.90
5258;DHT22;2651;51.594;9.928;2023-11-19T06:18:49;9.40;99.90
5258;DHT22;2651;51.594;9.928;2023-11-19T06:19:51;9.40;99.90
5258;DHT22;2651;51.594;9.928;2023-11-19T06:20:53;9.40;99.90
5258;DHT22;2651;51.594;9.928;2023-11-19T06:21:55;9.40;99.90
5258;DHT22;2651;51.594;9.928;2023-11-19T06:22:57;9.40;99.90
5258;DHT22;2651;51.594;9.928;2023-11-19T06:23:59;9.40;99.90
5258;DHT22;2651;51.594;9.928;2023-11-19T06:25:02;9.40;99.90
5258;DHT22;2651;51.594;9.928;2023-11-19T06:26:09;9.40;99.90
5258;DHT22;2651;51.594;9.928;2023-11-19T06:27:10;9.40;99.90
5258;DHT22;2651;51.594;9.928;2023-11-19T06:28:12;9.40;99.90
5258;DHT22;2651;51.594;9.928;2023-11-19T06:29:14;9.40;99.90
5258;DHT22;2651;51.594;9.928;2023-11-19T06:30:20;9.40;99.90
5258;DHT22;2651;51.594;9.928;2023-11-19T06:31:22;9.40;99.90
5258;DHT22;2651;51.594;9.928;2023-11-19T06:32:24;9.40;99.90
5258;DHT22;2651;51.594;9.928;2023-11-19T06:33:26;9.40;99.90
5258;DHT22;2651;51.594;9.928;2023-11-19T06:34:28;9.40;99.90
5258;DHT22;2651;51.594;9.928;2023-11-19T06:35:30;9.40;99.90
5258;DHT22;2651;51.594;9.928;2023-11-19T06:36:38;9.40;99.90
5258;DHT22;2651;51.594;9.928;2023-11-19T06:37:40;9.40;99.90
5258;DHT22;2651;51.594;9.928;2023-11-19T06:38:43;9.50;99.90
5258;DHT22;2651;51.594;9.928;2023-11-19T06:39:45;9.50;99.90
5258;DHT22;2651;51.594;9.928;2023-11-19T06:40:47;9.50;99.90
5258;DHT22;2651;51.594;9.928;2023-11-19T06:41:52;9.50;99.90
5258;DHT22;2651;51.594;9.928;2023-11-19T06:42:54;9.50;99.90
5258;DHT22;2651;51.594;9.928;2023-11-19T06:43:55;9.50;99.90
5258;DHT22;2651;51.594;9.928;2023-11-19T06:44:57;9.40;99.90
5258;DHT22;2651;51.594;9.928;2023-11-19T06:45:59;9.40;99.90
5258;DHT22;2651;51.594;9.928;2023-11-19T06:47:01;9.40;99.90
5258;DHT22;2651;51.594;9.928;2023-11-19T06:48:03;9.40;99.90
5258;DHT22;2651;51.594;9.928;2023-11-19T06:49:06;9.50;99.90
5258;DHT22;2651;51.594;9.928;2023-11-19T06:50:09;9.40;99.90
5258;DHT22;2651;51.594;9.928;2023-11-19T06:51:12;9.50;99.90
5258;DHT22;2651;51.594;9.928;2023-11-19T06:52:14;9.50;99.90
5258;DHT22;2651;51.594;9.928;2023-11-19T06:53:15;9.50;99.90
5258;DHT22;2651;51.594;9.928;2023-11-19T06:54:17;9.50;99.90
5258;DHT22;2651;51.594;9.928;2023-11-19T06:55:19;9.50;99.90
5258;DHT22;2651;51.594;9.928;2023-11-19T06:56:21;9.60;99.90
5258;DHT22;2651;51.594;9.928;2023-11-19T06:57:24;9.60;99.90